Time;durP1;ratioP1;P1;durP2;ratioP2;P2;SDS_P1;SDS_P2;PMS_P1;PMS_P2;Temp;Humidity;BMP_temperature;BMP_pressure;BME280_temperature;BME280_humidity;BME280_pressure;Samples;Min_cycle;Max_cycle;Signal;HPM_P1;HPM_P2
2023/05/24 00:00:41;;;;;;;27.90;6.93;;;5.90;99.90;;;;;;5106439;28;20064;-29
2023/05/24 00:03:07;;;;;;;27.98;7.00;;;6.00;99.90;;;;;;5094198;28;20475;-28
2023/05/24 00:05:36;;;;;;;40.22;7.28;;;6.10;99.90;;;;;;5094366;28;20050;-28
2023/05/24 00:08:03;;;;;;;32.75;6.78;;;6.10;99.90;;;;;;5128422;27;20051;-28
2023/05/24 00:10:28;;;;;;;27.23;6.20;;;6.10;99.90;;;;;;5129619;27;20056;-29
2023/05/24 00:12:54;;;;;;;27.38;6.53;;;6.30;99.90;;;;;;5095645;28;20054;-28
2023/05/24 00:15:20;;;;;;;33.90;6.00;;;6.30;99.90;;;;;;5077307;28;20497;-29
2023/05/24 00:17:46;;;;;;;29.38;7.53;;;6.60;99.90;;;;;;5095050;28;20040;-28
2023/05/24 00:20:12;;;;;;;49.05;9.23;;;7.10;99.90;;;;;;5094885;28;20131;-28
2023/05/24 00:22:39;;;;;;;25.95;6.43;;;7.50;99.90;;;;;;5096118;28;20075;-28
2023/05/24 00:25:05;;;;;;;29.00;6.88;;;7.90;99.90;;;;;;5094984;28;20047;-29
2023/05/24 00:27:32;;;;;;;29.35;7.70;;;8.00;99.90;;;;;;5093706;28;20484;-28
2023/05/24 00:29:57;;;;;;;29.10;6.15;;;8.10;99.90;;;;;;5094551;28;20480;-28
2023/05/24 00:32:23;;;;;;;28.85;7.43;;;8.00;99.90;;;;;;5102794;28;20069;-28
2023/05/24 00:34:49;;;;;;;26.65;6.20;;;8.00;99.90;;;;;;5115197;28;20050;-28
2023/05/24 00:37:15;;;;;;;27.15;5.85;;;7.90;99.90;;;;;;5115127;28;20398;-28
2023/05/24 00:39:40;;;;;;;31.33;6.88;;;7.90;99.90;;;;;;5115075;28;20039;-28
2023/05/24 00:42:06;;;;;;;24.00;5.68;;;7.80;99.90;;;;;;5114465;28;20040;-29
2023/05/24 00:44:32;;;;;;;24.55;5.43;;;7.80;99.90;;;;;;5115009;28;20092;-29
2023/05/24 00:46:59;;;;;;;27.17;5.57;;;7.80;99.90;;;;;;5114896;28;20429;-28
2023/05/24 00:49:25;;;;;;;30.80;6.05;;;7.90;99.90;;;;;;5115512;28;20129;-29
2023/05/24 00:51:53;;;;;;;28.50;6.50;;;7.90;99.90;;;;;;5114775;27;20043;-28
2023/05/24 00:54:19;;;;;;;30.77;5.38;;;7.80;99.90;;;;;;5114887;28;20051;-29
2023/05/24 00:56:46;;;;;;;29.58;5.80;;;7.90;99.90;;;;;;5114447;28;20506;-28
2023/05/24 00:59:13;;;;;;;21.67;5.43;;;7.90;99.90;;;;;;5113455;28;20059;-28
2023/05/24 01:01:40;;;;;;;26.38;5.80;;;7.80;99.90;;;;;;5113688;28;20058;-28
2023/05/24 01:04:06;;;;;;;20.35;4.70;;;7.80;99.90;;;;;;5114641;28;20125;-29
2023/05/24 01:06:46;;;;;;;23.58;4.65;;;7.90;99.90;;;;;;5114638;28;20050;-28
2023/05/24 01:09:21;;;;;;;23.67;4.75;;;7.90;99.90;;;;;;5115464;28;20044;-28
2023/05/24 01:12:24;;;;;;;34.45;5.78;;;7.90;99.90;;;;;;5114449;28;20502;-28
2023/05/24 01:15:15;;;;;;;26.15;5.38;;;8.00;99.90;;;;;;5114461;28;20122;-28
2023/05/24 01:18:00;;;;;;;24.60;5.30;;;8.00;99.90;;;;;;5114487;28;20109;-28
2023/05/24 01:20:29;;;;;;;22.60;4.35;;;7.90;99.90;;;;;;5113857;28;20051;-29
2023/05/24 01:23:34;;;;;;;23.88;5.60;;;7.90;99.90;;;;;;5113647;28;20466;-29
2023/05/24 01:26:25;;;;;;;24.95;5.88;;;7.90;99.90;;;;;;5100855;28;20116;-28
2023/05/24 01:28:52;;;;;;;23.45;4.97;;;7.90;99.90;;;;;;5114230;28;20044;-28
2023/05/24 01:31:20;;;;;;;25.77;6.22;;;7.90;99.90;;;;;;5114780;28;20087;-28
2023/05/24 01:33:46;;;;;;;26.40;5.85;;;8.00;99.90;;;;;;5114387;28;20463;-28
2023/05/24 01:36:11;;;;;;;16.75;5.50;;;8.00;99.90;;;;;;5114758;28;20122;-28
2023/05/24 01:38:38;;;;;;;19.80;4.80;;;8.10;99.90;;;;;;5113850;28;20090;-28
2023/05/24 01:41:17;;;;;;;19.33;3.80;;;8.20;99.90;;;;;;5114699;28;20044;-28
2023/05/24 01:43:52;;;;;;;25.08;5.55;;;8.30;99.90;;;;;;5114472;28;20448;-28
2023/05/24 01:46:36;;;;;;;24.80;6.47;;;8.30;99.90;;;;;;5114137;28;20052;-28
2023/05/24 01:49:25;;;;;;;23.35;3.92;;;8.30;99.90;;;;;;5113449;28;20436;-28
2023/05/24 01:51:58;;;;;;;30.42;6.43;;;8.20;99.90;;;;;;5112064;28;20058;-28
2023/05/24 01:54:25;;;;;;;23.05;5.35;;;8.20;99.90;;;;;;5113181;28;20047;-28
2023/05/24 01:56:56;;;;;;;24.63;4.70;;;8.10;99.90;;;;;;5114020;28;20506;-28
2023/05/24 01:59:25;;;;;;;27.27;4.97;;;8.00;99.90;;;;;;5113960;28;20096;-28
2023/05/24 02:01:50;;;;;;;34.75;6.40;;;7.80;99.90;;;;;;5114237;28;20475;-28
2023/05/24 02:04:17;;;;;;;28.27;4.95;;;7.60;99.90;;;;;;5114502;28;20048;-28
2023/05/24 02:06:43;;;;;;;24.00;5.75;;;7.60;99.90;;;;;;5114690;28;20040;-28
2023/05/24 02:09:08;;;;;;;23.48;5.72;;;7.60;99.90;;;;;;5113859;28;20367;-29
2023/05/24 02:11:34;;;;;;;27.45;4.53;;;7.60;99.90;;;;;;5113493;28;20078;-28
2023/05/24 02:14:00;;;;;;;17.95;4.70;;;7.70;99.90;;;;;;5113749;28;20040;-29
2023/05/24 02:16:29;;;;;;;25.73;4.75;;;7.70;99.90;;;;;;5112576;28;20047;-28
2023/05/24 02:18:56;;;;;;;25.50;5.10;;;7.80;99.90;;;;;;5112826;28;20054;-28
2023/05/24 02:21:23;;;;;;;23.50;4.60;;;7.80;99.90;;;;;;5078766;28;20048;-28
2023/05/24 02:23:48;;;;;;;21.30;4.45;;;7.80;99.90;;;;;;5113029;28;20047;-28
2023/05/24 02:26:16;;;;;;;29.85;6.25;;;7.90;99.90;;;;;;5112448;28;20390;-28
2023/05/24 02:28:42;;;;;;;22.02;4.70;;;8.00;99.90;;;;;;5112796;28;20043;-28
2023/05/24 02:31:08;;;;;;;20.17;3.38;;;8.10;99.90;;;;;;5114511;28;20465;-28
2023/05/24 02:33:36;;;;;;;17.35;4.57;;;8.20;99.90;;;;;;5117330;28;20503;-28
2023/05/24 02:36:02;;;;;;;26.67;4.53;;;8.30;99.90;;;;;;5118346;28;20052;-29
2023/05/24 02:38:27;;;;;;;19.02;3.90;;;8.40;99.90;;;;;;5117493;28;20054;-28
2023/05/24 02:40:53;;;;;;;25.50;4.47;;;8.40;99.90;;;;;;5117250;28;20359;-28
2023/05/24 02:43:19;;;;;;;24.20;4.35;;;8.40;99.90;;;;;;5117357;28;20489;-28
2023/05/24 02:45:45;;;;;;;17.83;4.38;;;8.40;99.90;;;;;;5117362;28;20049;-29
2023/05/24 02:48:11;;;;;;;18.33;4.55;;;8.50;99.90;;;;;;5116811;28;20054;-28
2023/05/24 02:50:36;;;;;;;19.73;4.15;;;8.60;99.90;;;;;;5117804;28;20052;-29
2023/05/24 02:53:02;;;;;;;16.30;3.63;;;8.70;99.90;;;;;;5116771;28;20138;-28
2023/05/24 02:55:28;;;;;;;16.80;4.10;;;8.60;99.90;;;;;;5116229;28;20047;-29
2023/05/24 02:57:55;;;;;;;16.90;3.47;;;8.70;99.90;;;;;;5117140;27;20071;-28
2023/05/24 03:00:20;;;;;;;27.48;5.47;;;8.60;99.90;;;;;;5117081;28;20051;-28
2023/05/24 03:02:46;;;;;;;23.05;4.90;;;8.80;99.90;;;;;;5117810;28;20040;-29
2023/05/24 03:05:12;;;;;;;16.88;3.15;;;8.80;99.90;;;;;;5117270;28;20093;-29
2023/05/24 03:07:38;;;;;;;14.18;3.92;;;8.80;90.50;;;;;;5117203;28;20487;-29
2023/05/24 03:10:04;;;;;;;21.00;4.40;;;8.90;40.30;;;;;;5117411;28;20035;-29
2023/05/24 03:12:29;;;;;;;14.15;3.47;;;8.80;1.00;;;;;;5116771;27;20461;-28
2023/05/24 03:14:55;;;;;;;19.67;4.10;;;8.80;1.00;;;;;;5098818;28;20075;-29
2023/05/24 03:17:21;;;;;;;22.92;4.25;;;8.80;1.00;;;;;;5116765;28;20126;-29
2023/05/24 03:19:47;;;;;;;16.83;3.72;;;8.80;1.00;;;;;;5117486;28;20362;-29
2023/05/24 03:22:12;;;;;;;22.70;3.85;;;8.80;1.00;;;;;;5115915;28;20031;-28
2023/05/24 03:24:38;;;;;;;20.25;4.20;;;8.90;27.50;;;;;;5116595;28;20054;-28
2023/05/24 03:27:05;;;;;;;20.30;4.35;;;9.00;11.30;;;;;;5117095;28;20394;-28
2023/05/24 03:29:31;;;;;;;22.13;4.43;;;9.00;19.90;;;;;;5116364;28;20043;-28
2023/05/24 03:31:57;;;;;;;24.08;3.72;;;9.10;32.50;;;;;;5115233;28;20035;-29
2023/05/24 03:34:22;;;;;;;24.27;4.50;;;9.10;1.00;;;;;;5115955;28;20551;-29
2023/05/24 03:36:48;;;;;;;18.92;3.53;;;9.20;1.00;;;;;;5116329;28;20048;-28
2023/05/24 03:39:14;;;;;;;21.23;3.60;;;9.30;1.00;;;;;;5115198;28;20040;-29
2023/05/24 03:41:39;;;;;;;19.05;4.20;;;9.40;1.00;;;;;;5116811;28;20044;-28
2023/05/24 03:44:05;;;;;;;30.25;5.38;;;9.40;1.00;;;;;;5114860;28;20035;-29
2023/05/24 03:46:31;;;;;;;19.63;3.50;;;9.40;1.00;;;;;;5116648;28;20089;-28
2023/05/24 03:48:57;;;;;;;13.90;3.38;;;9.40;1.00;;;;;;5115805;28;20058;-28
2023/05/24 03:51:28;;;;;;;20.52;5.25;;;9.40;1.00;;;;;;5116621;28;20126;-28
2023/05/24 03:53:57;;;;;;;23.17;4.60;;;9.40;1.00;;;;;;5116591;28;20039;-28
2023/05/24 03:56:23;;;;;;;17.08;3.60;;;9.40;1.00;;;;;;5116462;28;20043;-29
2023/05/24 03:58:51;;;;;;;20.88;3.35;;;9.30;1.00;;;;;;5116773;28;20071;-29
2023/05/24 04:01:18;;;;;;;17.15;4.32;;;9.40;1.00;;;;;;5115936;28;20047;-28
2023/05/24 04:03:44;;;;;;;20.85;3.88;;;9.50;1.00;;;;;;5115378;28;20394;-29
2023/05/24 04:06:11;;;;;;;22.38;4.40;;;9.50;1.00;;;;;;5115768;28;20047;-29
2023/05/24 04:08:37;;;;;;;24.23;4.85;;;9.60;1.00;;;;;;5115559;28;20044;-29
2023/05/24 04:11:03;;;;;;;17.20;4.10;;;9.60;1.00;;;;;;5115619;28;20050;-29
2023/05/24 04:13:29;;;;;;;23.25;4.10;;;9.50;1.00;;;;;;5114723;28;20047;-29
2023/05/24 04:15:55;;;;;;;24.52;4.78;;;9.50;1.00;;;;;;5097652;28;20040;-28
2023/05/24 04:18:21;;;;;;;25.20;5.00;;;9.50;1.00;;;;;;5115483;28;20050;-29
2023/05/24 04:20:46;;;;;;;33.17;5.43;;;9.50;1.00;;;;;;5115499;27;20051;-28
2023/05/24 04:23:12;;;;;;;22.80;4.07;;;9.50;1.00;;;;;;5114442;28;20547;-28
2023/05/24 04:25:38;;;;;;;22.63;5.53;;;9.40;1.00;;;;;;5115332;28;20402;-28
2023/05/24 04:28:04;;;;;;;23.60;4.70;;;9.40;1.00;;;;;;5115292;28;20062;-30
2023/05/24 04:30:31;;;;;;;22.40;3.97;;;9.40;1.00;;;;;;5114188;28;20052;-29
2023/05/24 04:32:57;;;;;;;17.05;3.92;;;9.40;1.00;;;;;;5115445;28;20563;-28
2023/05/24 04:35:24;;;;;;;21.15;3.67;;;9.50;1.00;;;;;;5096698;28;20047;-29
2023/05/24 04:37:51;;;;;;;31.15;5.32;;;9.50;1.00;;;;;;5115136;28;20050;-28
2023/05/24 04:40:19;;;;;;;18.50;4.82;;;9.40;1.00;;;;;;5115108;28;20053;-28
2023/05/24 04:42:45;;;;;;;28.27;5.78;;;9.40;1.00;;;;;;5115064;28;20042;-28
2023/05/24 04:45:11;;;;;;;21.13;5.18;;;9.40;1.00;;;;;;5115072;28;20083;-29
2023/05/24 04:47:37;;;;;;;30.98;4.97;;;9.30;1.00;;;;;;5114682;28;20054;-29
2023/05/24 04:50:03;;;;;;;29.55;5.55;;;9.30;1.00;;;;;;5115112;28;20142;-29
2023/05/24 04:52:29;;;;;;;22.48;3.90;;;9.30;1.00;;;;;;5115887;28;20051;-28
2023/05/24 04:54:56;;;;;;;18.88;3.90;;;9.30;28.40;;;;;;5115057;28;20048;-28
2023/05/24 04:57:22;;;;;;;27.17;4.57;;;9.40;48.70;;;;;;5114595;28;20052;-28
2023/05/24 04:59:48;;;;;;;22.23;4.05;;;9.50;99.90;;;;;;5114745;28;20387;-28
2023/05/24 05:02:14;;;;;;;21.42;4.15;;;9.70;94.70;;;;;;5114629;28;20097;-30
2023/05/24 05:04:39;;;;;;;22.67;4.82;;;9.80;97.40;;;;;;5114650;28;20055;-29
2023/05/24 05:07:05;;;;;;;21.00;4.35;;;10.00;1.00;;;;;;5115178;28;20049;-29
2023/05/24 05:09:31;;;;;;;21.25;4.40;;;10.10;1.00;;;;;;5114254;28;20070;-28
2023/05/24 05:11:57;;;;;;;16.75;3.00;;;10.20;1.00;;;;;;5113366;28;20047;-28
2023/05/24 05:14:23;;;;;;;21.50;4.45;;;10.30;1.00;;;;;;5115075;28;20043;-28
2023/05/24 05:16:48;;;;;;;17.73;4.60;;;10.30;1.00;;;;;;5115009;28;20047;-28
2023/05/24 05:19:15;;;;;;;13.43;3.88;;;10.30;99.90;;;;;;5096493;28;20043;-29
2023/05/24 05:21:40;;;;;;;17.70;3.97;;;10.30;99.90;;;;;;5114937;28;20090;-28
2023/05/24 05:24:06;;;;;;;21.15;4.78;;;10.30;99.90;;;;;;5113388;28;20391;-28
2023/05/24 05:26:32;;;;;;;23.13;4.20;;;10.30;99.90;;;;;;5114286;28;20051;-28
2023/05/24 05:28:58;;;;;;;24.13;4.63;;;10.20;99.90;;;;;;5112902;28;20054;-29
2023/05/24 05:31:24;;;;;;;19.10;4.30;;;10.20;99.90;;;;;;5114238;28;20046;-28
2023/05/24 05:33:50;;;;;;;29.92;4.43;;;10.30;1.00;;;;;;5114197;28;20481;-28
2023/05/24 05:36:16;;;;;;;19.50;4.60;;;10.30;1.00;;;;;;5113165;28;20086;-29
2023/05/24 05:38:42;;;;;;;22.38;4.45;;;10.30;1.00;;;;;;5114186;28;20080;-28
2023/05/24 05:41:08;;;;;;;25.95;5.32;;;10.30;99.90;;;;;;5113195;28;20276;-28
2023/05/24 05:43:34;;;;;;;19.08;4.50;;;10.30;1.00;;;;;;5114171;28;20051;-29
2023/05/24 05:46:00;;;;;;;21.25;4.00;;;10.30;99.90;;;;;;5114319;28;20043;-30
2023/05/24 05:48:26;;;;;;;17.80;4.63;;;10.30;1.00;;;;;;5113808;28;20048;-28
2023/05/24 05:50:51;;;;;;;20.10;4.35;;;10.40;1.00;;;;;;5114081;28;20048;-28
2023/05/24 05:53:17;;;;;;;27.50;5.95;;;10.30;99.90;;;;;;5113891;28;20035;-28
2023/05/24 05:55:43;;;;;;;15.35;3.10;;;10.30;1.00;;;;;;5114842;28;20036;-28
2023/05/24 05:58:09;;;;;;;16.30;4.00;;;10.30;99.90;;;;;;5113266;28;20417;-28
2023/05/24 06:00:34;;;;;;;19.77;3.58;;;10.40;99.90;;;;;;5112698;28;20122;-28
2023/05/24 06:03:00;;;;;;;16.13;3.80;;;10.50;99.90;;;;;;5113889;28;20096;-28
2023/05/24 06:05:26;;;;;;;25.35;4.88;;;10.50;99.90;;;;;;5113893;28;20105;-28
2023/05/24 06:07:52;;;;;;;16.33;4.13;;;10.50;99.90;;;;;;5116708;28;20119;-28
2023/05/24 06:10:17;;;;;;;13.27;3.45;;;10.60;99.90;;;;;;5118057;28;20074;-28
2023/05/24 06:12:43;;;;;;;17.90;4.28;;;10.60;99.90;;;;;;5117887;28;20386;-28
2023/05/24 06:15:09;;;;;;;15.65;3.70;;;10.70;99.90;;;;;;5117957;28;20044;-28
2023/05/24 06:17:36;;;;;;;15.57;3.20;;;10.80;99.90;;;;;;5117986;28;20048;-29
2023/05/24 06:20:06;;;;;;;13.27;3.58;;;10.90;99.90;;;;;;5117862;28;20048;-29
2023/05/24 06:22:32;;;;;;;18.50;3.92;;;11.00;99.90;;;;;;5118644;28;20039;-28
2023/05/24 06:24:58;;;;;;;18.98;3.85;;;11.10;99.90;;;;;;5117467;28;20055;-28
2023/05/24 06:27:24;;;;;;;19.02;4.32;;;11.10;99.90;;;;;;5117701;28;20040;-28
2023/05/24 06:29:50;;;;;;;16.85;4.00;;;11.10;48.30;;;;;;5116475;28;20051;-28
2023/05/24 06:32:15;;;;;;;10.43;3.05;;;11.10;58.20;;;;;;5118107;28;20036;-28
2023/05/24 06:34:42;;;;;;;19.55;4.88;;;11.20;20.50;;;;;;5117574;28;20051;-28
2023/05/24 06:37:09;;;;;;;16.05;3.38;;;11.30;1.00;;;;;;5099543;28;20039;-28
2023/05/24 06:39:35;;;;;;;14.45;2.95;;;11.40;1.00;;;;;;5116329;28;20047;-28
2023/05/24 06:42:01;;;;;;;12.68;2.70;;;11.40;99.90;;;;;;5117507;28;20122;-28
2023/05/24 06:44:32;;;;;;;12.68;3.33;;;11.50;99.90;;;;;;5117883;28;20135;-28
2023/05/24 06:47:02;;;;;;;17.13;3.75;;;11.70;99.90;;;;;;5116508;28;20469;-28
2023/05/24 06:49:28;;;;;;;11.02;3.40;;;11.80;99.90;;;;;;5115983;28;20062;-29
2023/05/24 06:51:54;;;;;;;17.70;3.40;;;12.10;26.70;;;;;;5117292;28;20047;-29
2023/05/24 06:54:20;;;;;;;16.25;3.00;;;12.30;99.90;;;;;;5117918;28;20493;-29
2023/05/24 06:56:46;;;;;;;11.40;2.92;;;12.30;1.00;;;;;;5116186;28;20506;-30
2023/05/24 06:59:12;;;;;;;21.13;3.67;;;12.60;1.00;;;;;;5116976;28;20382;-28
2023/05/24 07:01:38;;;;;;;18.75;4.13;;;12.80;1.00;;;;;;5116750;27;20048;-29
2023/05/24 07:04:05;;;;;;;19.80;4.03;;;12.60;1.00;;;;;;5117002;27;20096;-29
2023/05/24 07:06:33;;;;;;;17.80;2.95;;;12.70;1.00;;;;;;5117023;28;20100;-29
2023/05/24 07:09:00;;;;;;;16.10;4.00;;;12.50;1.00;;;;;;5117457;28;20075;-29
2023/05/24 07:11:27;;;;;;;14.73;3.45;;;12.90;99.90;;;;;;5116213;28;20134;-29
2023/05/24 07:13:53;;;;;;;13.77;3.05;;;13.20;1.00;;;;;;5117265;28;20042;-28
2023/05/24 07:16:18;;;;;;;25.17;4.35;;;13.10;96.00;;;;;;5115795;28;20047;-28
2023/05/24 07:18:44;;;;;;;9.80;2.65;;;13.10;99.90;;;;;;5115660;28;20043;-28
2023/05/24 07:21:10;;;;;;;16.42;3.03;;;13.10;84.70;;;;;;5117259;28;20043;-28
2023/05/24 07:23:36;;;;;;;18.65;3.97;;;12.90;91.70;;;;;;5116886;28;20043;-28
2023/05/24 07:26:03;;;;;;;18.15;3.30;;;13.10;99.90;;;;;;5116600;28;20180;-28
2023/05/24 07:28:29;;;;;;;16.05;4.28;;;13.00;99.90;;;;;;5115481;28;20043;-28
2023/05/24 07:30:55;;;;;;;12.38;3.20;;;12.90;99.90;;;;;;5115342;28;20051;-29
2023/05/24 07:33:21;;;;;;;15.48;3.50;;;12.60;99.90;;;;;;5116360;28;20046;-28
2023/05/24 07:35:50;;;;;;;10.52;3.40;;;12.50;99.90;;;;;;5116319;28;20039;-28
2023/05/24 07:38:17;;;;;;;11.98;3.40;;;12.40;99.90;;;;;;5116278;28;20044;-29
2023/05/24 07:40:43;;;;;;;11.23;3.47;;;12.40;99.90;;;;;;5081800;28;20055;-28
2023/05/24 07:43:09;;;;;;;12.05;2.90;;;12.60;1.00;;;;;;5116064;28;20050;-28
2023/05/24 07:45:35;;;;;;;15.82;3.28;;;12.70;14.30;;;;;;5115050;28;20047;-29
2023/05/24 07:48:00;;;;;;;18.38;3.33;;;12.80;99.90;;;;;;5115034;28;20047;-28
2023/05/24 07:50:27;;;;;;;11.75;2.80;;;12.70;99.90;;;;;;5117315;28;20059;-28
2023/05/24 07:52:55;;;;;;;10.90;3.28;;;12.80;44.00;;;;;;5115977;27;20046;-29
2023/05/24 07:55:21;;;;;;;14.63;3.53;;;13.00;99.90;;;;;;5115990;28;20051;-28
2023/05/24 07:57:46;;;;;;;10.95;2.75;;;12.90;55.50;;;;;;5098055;28;20100;-28
2023/05/24 08:00:15;;;;;;;12.55;3.55;;;13.10;1.00;;;;;;5114674;28;20047;-28
2023/05/24 08:02:42;;;;;;;11.82;3.08;;;13.40;99.00;;;;;;5115885;28;20043;-28
2023/05/24 08:05:12;;;;;;;12.52;3.40;;;14.50;1.00;;;;;;5115825;28;20060;-28
2023/05/24 08:07:39;;;;;;;11.38;2.75;;;14.60;99.90;;;;;;5116079;28;20070;-29
2023/05/24 08:10:06;;;;;;;7.72;2.40;;;13.70;99.90;;;;;;5116580;28;20044;-28
2023/05/24 08:12:31;;;;;;;10.02;3.00;;;13.20;99.90;;;;;;5114724;28;20543;-28
2023/05/24 08:14:57;;;;;;;7.60;1.83;;;13.20;1.00;;;;;;5114496;28;20043;-29
2023/05/24 08:17:23;;;;;;;10.43;2.40;;;13.40;1.00;;;;;;5115637;28;20064;-29
2023/05/24 08:19:49;;;;;;;11.95;2.20;;;13.50;1.00;;;;;;5115560;28;20059;-29
2023/05/24 08:22:15;;;;;;;8.98;2.67;;;13.70;99.90;;;;;;5115422;28;20471;-29
2023/05/24 08:24:41;;;;;;;7.40;2.25;;;13.80;99.90;;;;;;5115453;28;20039;-28
2023/05/24 08:27:07;;;;;;;7.68;2.35;;;14.00;99.90;;;;;;5115655;28;20448;-28
2023/05/24 08:29:34;;;;;;;8.18;2.38;;;14.40;99.90;;;;;;5115090;28;20517;-28
2023/05/24 08:32:00;;;;;;;8.05;2.42;;;14.70;1.00;;;;;;5115598;28;20040;-29
2023/05/24 08:34:27;;;;;;;7.88;2.20;;;15.00;99.90;;;;;;5115050;28;20559;-29
2023/05/24 08:36:53;;;;;;;9.65;2.33;;;15.10;99.90;;;;;;5115211;28;20043;-28
2023/05/24 08:39:19;;;;;;;9.60;2.60;;;15.00;99.90;;;;;;5115678;28;20047;-28
2023/05/24 08:41:45;;;;;;;9.48;2.45;;;15.20;99.90;;;;;;5115106;28;20183;-28
2023/05/24 08:44:12;;;;;;;8.82;3.08;;;15.80;1.00;;;;;;5114967;28;20383;-29
2023/05/24 08:46:38;;;;;;;8.25;2.78;;;15.80;99.90;;;;;;5115018;28;20056;-29
2023/05/24 08:49:06;;;;;;;9.50;2.45;;;16.10;99.90;;;;;;5114742;28;20105;-28
2023/05/24 08:51:32;;;;;;;9.60;2.85;;;15.90;99.90;;;;;;5114920;28;20131;-28
2023/05/24 08:53:59;;;;;;;5.90;2.08;;;15.50;99.90;;;;;;5114743;28;20608;-28
2023/05/24 08:56:26;;;;;;;13.20;2.92;;;15.40;1.00;;;;;;5115687;28;20040;-28
2023/05/24 08:58:53;;;;;;;10.20;2.53;;;15.10;1.00;;;;;;5115148;28;20152;-28
2023/05/24 09:01:20;;;;;;;8.23;2.45;;;14.90;1.00;;;;;;5114775;28;20055;-29
2023/05/24 09:03:46;;;;;;;9.60;2.83;;;14.80;99.90;;;;;;5096672;28;20052;-28
2023/05/24 09:06:16;;;;;;;7.00;2.78;;;14.70;1.00;;;;;;5114932;28;20074;-29
2023/05/24 09:08:43;;;;;;;9.23;2.58;;;14.80;99.90;;;;;;5114244;28;20088;-28
2023/05/24 09:11:10;;;;;;;9.77;3.08;;;14.70;1.00;;;;;;5114650;28;20494;-28
2023/05/24 09:13:36;;;;;;;11.10;2.70;;;14.70;1.00;;;;;;5114504;28;20063;-28
2023/05/24 09:16:02;;;;;;;9.57;2.80;;;15.80;1.00;;;;;;5114499;28;20054;-28
2023/05/24 09:18:28;;;;;;;12.30;3.28;;;16.10;99.90;;;;;;5114487;28;20058;-28
2023/05/24 09:20:54;;;;;;;4.88;1.88;;;15.80;99.90;;;;;;5114189;28;20047;-29
2023/05/24 09:23:20;;;;;;;9.23;2.60;;;15.50;99.90;;;;;;5112956;28;20082;-29
2023/05/24 09:25:46;;;;;;;6.57;2.30;;;15.20;99.90;;;;;;5114299;28;20040;-28
2023/05/24 09:28:16;;;;;;;6.97;2.28;;;15.10;99.90;;;;;;5114196;28;20047;-28
2023/05/24 09:30:57;;;;;;;8.60;2.10;;;15.40;99.90;;;;;;5114268;28;20042;-29
2023/05/24 09:33:27;;;;;;;9.52;2.90;;;15.60;1.00;;;;;;5114822;28;20039;-28
2023/05/24 09:35:57;;;;;;;6.35;2.85;;;15.30;99.90;;;;;;5114175;28;20047;-29
2023/05/24 09:38:24;;;;;;;12.07;2.95;;;14.80;99.90;;;;;;5114250;28;20047;-29
2023/05/24 09:41:04;;;;;;;10.50;3.42;;;14.90;99.90;;;;;;5113946;28;20084;-29
2023/05/24 09:43:45;;;;;;;11.50;2.13;;;14.70;1.00;;;;;;5113833;28;20046;-29
2023/05/24 09:46:16;;;;;;;9.20;2.80;;;14.90;1.00;;;;;;5114712;28;20052;-28
2023/05/24 09:48:55;;;;;;;11.38;3.25;;;15.10;99.90;;;;;;5112716;28;20048;-29
2023/05/24 09:51:21;;;;;;;11.52;2.78;;;15.90;99.90;;;;;;5113101;28;20054;-28
2023/05/24 09:53:48;;;;;;;9.88;2.58;;;16.00;72.40;;;;;;5114750;28;20044;-29
2023/05/24 09:56:14;;;;;;;9.00;2.63;;;16.10;99.90;;;;;;5113977;28;20047;-29
2023/05/24 09:58:41;;;;;;;9.52;2.67;;;15.70;99.90;;;;;;5114612;28;20055;-28
2023/05/24 10:01:09;;;;;;;8.52;2.20;;;15.90;99.90;;;;;;5114488;28;20108;-29
2023/05/24 10:03:36;;;;;;;13.50;2.42;;;15.90;99.90;;;;;;5113977;28;20035;-29
2023/05/24 10:06:08;;;;;;;10.23;2.63;;;16.10;1.00;;;;;;5114723;28;20080;-29
2023/05/24 10:08:35;;;;;;;11.25;2.42;;;15.60;1.00;;;;;;5113921;28;20122;-31
2023/05/24 10:11:04;;;;;;;11.73;3.10;;;15.20;20.70;;;;;;5113950;28;20051;-30
2023/05/24 10:13:35;;;;;;;15.88;4.07;;;15.00;99.90;;;;;;5114273;28;20036;-29
2023/05/24 10:16:04;;;;;;;13.15;2.80;;;15.20;99.90;;;;;;5113871;28;20043;-29
2023/05/24 10:18:30;;;;;;;10.25;2.55;;;15.00;99.90;;;;;;5113824;28;20565;-29
2023/05/24 10:20:56;;;;;;;13.90;3.95;;;15.10;1.00;;;;;;5095838;28;20078;-29
2023/05/24 10:23:25;;;;;;;17.05;3.20;;;15.00;99.90;;;;;;5113619;28;20127;-29
2023/05/24 10:26:02;;;;;;;14.40;2.53;;;15.40;1.00;;;;;;5113058;28;20123;-29
2023/05/24 10:28:29;;;;;;;12.00;2.85;;;15.80;99.90;;;;;;5113704;28;20096;-30
2023/05/24 10:31:11;;;;;;;12.80;3.22;;;15.40;99.90;;;;;;5095764;28;20052;-28
2023/05/24 10:33:37;;;;;;;9.98;2.67;;;15.90;1.00;;;;;;5113884;28;20471;-28
2023/05/24 10:36:06;;;;;;;11.23;2.58;;;16.40;31.70;;;;;;5114218;28;20047;-28
2023/05/24 10:38:32;;;;;;;7.05;2.30;;;15.60;99.90;;;;;;5113654;28;20402;-30
2023/05/24 10:40:58;;;;;;;10.30;3.03;;;15.20;99.90;;;;;;5113619;28;20047;-28
2023/05/24 10:43:25;;;;;;;10.32;2.50;;;15.20;1.00;;;;;;5113546;28;20491;-28
2023/05/24 10:45:51;;;;;;;11.20;3.13;;;15.10;99.90;;;;;;5113536;28;20039;-28
2023/05/24 10:48:23;;;;;;;8.75;2.65;;;15.40;43.30;;;;;;5113563;28;20116;-29
2023/05/24 10:50:49;;;;;;;10.43;2.92;;;15.60;99.90;;;;;;5112328;28;20055;-29
2023/05/24 10:53:17;;;;;;;11.80;3.25;;;15.60;98.40;;;;;;5115261;28;20086;-28
2023/05/24 10:56:02;;;;;;;12.15;2.58;;;16.40;1.00;;;;;;5117283;27;20054;-29
2023/05/24 10:58:50;;;;;;;13.85;3.03;;;16.50;99.90;;;;;;5116752;28;20082;-28
2023/05/24 11:01:30;;;;;;;14.05;2.97;;;16.60;99.90;;;;;;5115893;28;20051;-29
2023/05/24 11:04:09;;;;;;;10.63;2.67;;;16.10;1.00;;;;;;5117718;28;20048;-28
2023/05/24 11:07:08;;;;;;;10.90;2.70;;;15.90;99.90;;;;;;5116370;28;20047;-29
2023/05/24 11:09:34;;;;;;;9.10;2.47;;;15.60;1.00;;;;;;5101445;28;20058;-30
2023/05/24 11:12:03;;;;;;;13.30;3.67;;;16.30;1.00;;;;;;5116899;28;20501;-29
2023/05/24 11:14:31;;;;;;;8.48;2.30;;;17.00;1.00;;;;;;5117596;28;20044;-29
2023/05/24 11:16:59;;;;;;;12.70;3.33;;;17.30;1.00;;;;;;5115838;28;20059;-28
2023/05/24 11:19:33;;;;;;;11.63;2.88;;;17.30;99.90;;;;;;5115515;28;20096;-29
2023/05/24 11:22:00;;;;;;;15.82;3.25;;;18.10;1.00;;;;;;5116668;28;20490;-29
2023/05/24 11:24:27;;;;;;;9.00;2.67;;;18.60;60.50;;;;;;5116644;28;20051;-29
2023/05/24 11:26:53;;;;;;;6.43;2.17;;;18.30;1.00;;;;;;5115910;28;20122;-29
2023/05/24 11:29:21;;;;;;;10.07;2.38;;;17.50;1.00;;;;;;5115791;28;20547;-29
2023/05/24 11:32:17;;;;;;;11.43;2.95;;;17.70;1.00;;;;;;5116530;28;20048;-30
2023/05/24 11:34:45;;;;;;;12.73;3.40;;;17.60;1.00;;;;;;5114959;28;20052;-29
2023/05/24 11:37:12;;;;;;;8.52;2.78;;;17.80;26.40;;;;;;5116969;27;20047;-30
2023/05/24 11:39:38;;;;;;;14.35;2.92;;;17.20;99.90;;;;;;5115380;28;20402;-29
2023/05/24 11:42:05;;;;;;;12.63;3.70;;;17.10;1.00;;;;;;5103417;28;20444;-29
2023/05/24 11:44:32;;;;;;;7.15;2.58;;;16.90;1.00;;;;;;5102675;28;20056;-30
2023/05/24 11:47:02;;;;;;;12.30;2.60;;;17.40;1.00;;;;;;5101254;28;20044;-29
2023/05/24 11:49:28;;;;;;;11.00;2.55;;;17.50;1.00;;;;;;5095399;28;20131;-29
2023/05/24 11:51:55;;;;;;;12.07;3.03;;;17.00;1.00;;;;;;5096277;28;20048;-29
2023/05/24 11:54:22;;;;;;;9.82;2.20;;;16.60;1.00;;;;;;5094434;28;20051;-29
2023/05/24 11:56:48;;;;;;;9.90;2.67;;;16.30;1.00;;;;;;5113485;28;20478;-29
2023/05/24 11:59:22;;;;;;;10.07;2.58;;;16.40;42.50;;;;;;5115259;28;20039;-29
2023/05/24 12:01:57;;;;;;;13.18;2.78;;;16.70;99.90;;;;;;5114528;28;20212;-25
2023/05/24 12:04:23;;;;;;;12.85;2.83;;;16.90;1.00;;;;;;5095074;28;20109;-28
2023/05/24 12:06:48;;;;;;;10.23;2.75;;;16.80;1.00;;;;;;5103392;28;20494;-29
2023/05/24 12:09:15;;;;;;;14.00;3.13;;;17.60;1.00;;;;;;5115794;28;20120;-29
2023/05/24 12:11:43;;;;;;;10.65;3.55;;;17.90;99.90;;;;;;5096404;28;20564;-29
2023/05/24 12:14:21;;;;;;;8.68;2.92;;;17.80;99.90;;;;;;5108921;28;20044;-28
2023/05/24 12:16:47;;;;;;;13.15;2.50;;;17.60;99.90;;;;;;5095877;28;20127;-31
2023/05/24 12:19:21;;;;;;;12.45;3.00;;;17.20;99.90;;;;;;5093927;28;20586;-30
2023/05/24 12:21:51;;;;;;;14.30;2.58;;;16.40;1.00;;;;;;5111053;28;20546;-30
2023/05/24 12:24:18;;;;;;;14.18;3.22;;;16.20;1.00;;;;;;5115188;28;20032;-29
2023/05/24 12:26:47;;;;;;;11.63;2.28;;;16.20;1.00;;;;;;5115954;28;20062;-30
2023/05/24 12:29:13;;;;;;;12.13;2.58;;;16.10;3.50;;;;;;5114640;28;20130;-28
2023/05/24 12:31:46;;;;;;;8.10;2.65;;;15.80;99.90;;;;;;5110876;28;20067;-28
2023/05/24 12:34:16;;;;;;;10.93;2.60;;;16.30;99.90;;;;;;5114423;28;20066;-30
2023/05/24 12:36:42;;;;;;;14.32;3.03;;;16.60;9.30;;;;;;5116078;28;20549;-29
2023/05/24 12:39:23;;;;;;;13.48;3.22;;;16.90;72.30;;;;;;5115212;28;20085;-29
2023/05/24 12:41:54;;;;;;;9.77;2.70;;;17.10;99.90;;;;;;5113247;28;20058;-29
2023/05/24 12:44:23;;;;;;;10.88;3.38;;;17.00;6.60;;;;;;5112087;28;20096;-29
2023/05/24 12:46:52;;;;;;;10.60;2.90;;;17.20;99.90;;;;;;5094560;28;20052;-29
2023/05/24 12:49:18;;;;;;;9.95;2.92;;;17.80;98.00;;;;;;5094357;28;20368;-29